createdAt,value
2019-05-25T00:00:28.713Z,1.77
2019-05-25T00:03:00.419Z,1.77
2019-05-25T00:05:32.130Z,1.60
2019-05-25T00:08:03.985Z,1.77
2019-05-25T00:10:35.668Z,1.43
2019-05-25T00:13:08.870Z,1.80
2019-05-25T00:15:40.551Z,1.53
2019-05-25T00:18:13.292Z,1.53
2019-05-25T00:20:44.961Z,1.80
2019-05-25T00:23:16.718Z,1.87
2019-05-25T00:25:48.413Z,2.07
2019-05-25T00:28:21.128Z,1.70
2019-05-25T00:30:52.842Z,1.93
2019-05-25T00:33:24.551Z,1.80
2019-05-25T00:35:56.224Z,1.87
2019-05-25T00:38:28.000Z,2.10
2019-05-25T00:40:59.674Z,2.03
2019-05-25T00:43:31.513Z,2.20
2019-05-25T00:46:03.195Z,2.30
2019-05-25T00:48:34.885Z,1.87
2019-05-25T00:51:07.679Z,1.83
2019-05-25T00:53:39.391Z,1.90
2019-05-25T00:56:11.044Z,1.93
2019-05-25T00:58:44.091Z,2.57
2019-05-25T01:01:15.847Z,2.23
2019-05-25T01:03:47.519Z,2.20
2019-05-25T01:06:19.246Z,2.50
2019-05-25T01:08:51.130Z,2.10
2019-05-25T01:11:22.838Z,2.30
2019-05-25T01:13:54.539Z,2.30
2019-05-25T01:16:26.190Z,2.00
2019-05-25T01:18:57.894Z,2.00
2019-05-25T01:21:29.767Z,2.20
2019-05-25T01:24:01.700Z,2.57
2019-05-25T01:26:33.368Z,1.90
2019-05-25T01:29:05.046Z,2.07
2019-05-25T01:31:36.833Z,1.97
2019-05-25T01:34:08.549Z,2.27
2019-05-25T01:36:40.341Z,2.43
2019-05-25T01:39:12.058Z,2.40
2019-05-25T01:41:43.767Z,2.27
2019-05-25T01:44:15.480Z,2.37
2019-05-25T01:46:47.185Z,3.00
2019-05-25T01:49:18.859Z,2.60
2019-05-25T01:51:50.562Z,2.47
2019-05-25T01:54:22.379Z,2.90
2019-05-25T01:56:54.039Z,2.93
2019-05-25T01:59:25.711Z,2.97
2019-05-25T02:01:57.405Z,3.17
2019-05-25T02:04:29.074Z,2.70
2019-05-25T02:07:00.714Z,2.50
2019-05-25T02:09:32.402Z,2.53
2019-05-25T02:12:04.136Z,2.70
2019-05-25T02:14:35.793Z,2.73
2019-05-25T02:17:07.584Z,2.30
2019-05-25T02:19:39.273Z,3.00
2019-05-25T02:22:10.977Z,2.80
2019-05-25T02:24:42.672Z,2.70
2019-05-25T02:27:14.530Z,3.00
2019-05-25T02:29:46.287Z,2.90
2019-05-25T02:32:17.947Z,2.77
2019-05-25T02:34:49.628Z,2.63
2019-05-25T02:37:21.339Z,2.60
2019-05-25T02:39:53.010Z,2.87
2019-05-25T02:42:24.702Z,2.63
2019-05-25T02:44:56.409Z,2.70
2019-05-25T02:47:28.271Z,2.90
2019-05-25T02:49:59.938Z,2.87
2019-05-25T02:52:31.627Z,2.47
2019-05-25T02:55:03.318Z,2.43
2019-05-25T02:57:35.061Z,3.07
2019-05-25T03:00:08.552Z,3.10
2019-05-25T03:02:40.454Z,3.17
2019-05-25T03:05:15.632Z,3.27
2019-05-25T03:07:47.395Z,3.27
2019-05-25T03:10:19.190Z,3.00
2019-05-25T03:12:51.668Z,3.17
2019-05-25T03:15:23.334Z,3.07
2019-05-25T03:17:55.012Z,3.00
2019-05-25T03:20:26.716Z,3.27
2019-05-25T03:22:59.888Z,3.00
2019-05-25T03:25:31.548Z,2.87
2019-05-25T03:28:03.236Z,3.20
2019-05-25T03:30:38.555Z,3.00
2019-05-25T03:33:10.249Z,2.93
2019-05-25T03:35:42.012Z,3.23
2019-05-25T03:38:13.691Z,3.43
2019-05-25T03:40:45.354Z,3.57
2019-05-25T03:43:17.151Z,3.97
2019-05-25T03:45:48.812Z,3.27
2019-05-25T03:48:20.625Z,3.27
2019-05-25T03:50:52.366Z,3.07
2019-05-25T03:53:24.052Z,3.53
2019-05-25T03:56:05.173Z,3.70
2019-05-25T03:58:29.271Z,3.60
2019-05-25T04:01:00.920Z,3.40
2019-05-25T04:03:34.101Z,3.70
2019-05-25T04:06:06.029Z,3.20
2019-05-25T04:08:37.811Z,3.67
2019-05-25T04:11:09.584Z,3.60
2019-05-25T04:13:41.238Z,3.23
2019-05-25T04:16:12.935Z,3.40
2019-05-25T04:18:44.635Z,3.10
2019-05-25T04:21:16.272Z,3.53
2019-05-25T04:23:48.029Z,2.83
2019-05-25T04:26:22.920Z,3.40
2019-05-25T04:28:53.083Z,3.17
2019-05-25T04:31:24.914Z,3.20
2019-05-25T04:33:56.569Z,3.47
2019-05-25T04:36:28.236Z,3.50
2019-05-25T04:38:59.874Z,3.80
2019-05-25T04:41:31.555Z,3.50
2019-05-25T04:44:03.226Z,3.47
2019-05-25T04:46:34.917Z,3.43
2019-05-25T04:49:06.567Z,3.63
2019-05-25T04:51:38.257Z,3.20
2019-05-25T04:54:09.930Z,3.63
2019-05-25T04:56:41.656Z,3.20
2019-05-25T04:59:13.341Z,3.57
2019-05-25T05:01:45.059Z,3.43
2019-05-25T05:04:16.743Z,3.57
2019-05-25T05:06:48.548Z,3.53
2019-05-25T05:09:20.198Z,4.00
2019-05-25T05:11:52.150Z,3.73
2019-05-25T05:14:23.827Z,3.47
2019-05-25T05:16:55.955Z,3.70
2019-05-25T05:19:27.626Z,4.20
2019-05-25T05:21:59.321Z,3.50
2019-05-25T05:24:30.975Z,3.57
2019-05-25T05:27:02.817Z,3.43
2019-05-25T05:29:34.648Z,3.37
2019-05-25T05:32:06.457Z,3.50
2019-05-25T05:34:38.155Z,3.80
2019-05-25T05:37:10.832Z,3.77
2019-05-25T05:39:44.712Z,3.70
2019-05-25T05:42:19.261Z,3.10
2019-05-25T05:44:53.918Z,2.90
2019-05-25T05:47:28.931Z,2.80
2019-05-25T05:50:04.987Z,3.00
2019-05-25T05:52:40.240Z,3.40
2019-05-25T05:55:12.905Z,3.40
2019-05-25T05:57:44.585Z,3.10
2019-05-25T06:00:16.662Z,2.87
2019-05-25T06:02:48.421Z,3.30
2019-05-25T06:05:20.132Z,2.87
2019-05-25T06:07:52.004Z,3.03
2019-05-25T06:10:24.009Z,2.80
2019-05-25T06:12:55.669Z,2.83
2019-05-25T06:15:27.377Z,2.80
2019-05-25T06:17:59.194Z,2.80
2019-05-25T06:20:30.903Z,2.43
2019-05-25T06:23:02.589Z,3.00
2019-05-25T06:25:34.409Z,2.83
2019-05-25T06:28:06.463Z,2.70
2019-05-25T06:30:38.166Z,2.90
2019-05-25T06:33:09.940Z,2.47
2019-05-25T06:35:42.002Z,2.50
2019-05-25T06:38:13.763Z,2.30
2019-05-25T06:40:45.585Z,2.30
2019-05-25T06:43:17.269Z,2.00
2019-05-25T06:45:49.015Z,2.40
2019-05-25T06:48:20.823Z,2.23
2019-05-25T06:50:52.662Z,2.23
2019-05-25T06:53:24.551Z,2.17
2019-05-25T06:55:56.278Z,2.03
2019-05-25T06:58:28.018Z,2.33
2019-05-25T07:00:59.815Z,1.87
2019-05-25T07:03:31.518Z,1.60
2019-05-25T07:06:03.342Z,1.70
2019-05-25T07:08:35.344Z,2.00
2019-05-25T07:11:07.052Z,1.97
2019-05-25T07:13:38.887Z,2.20
2019-05-25T07:16:10.690Z,2.77
2019-05-25T07:18:44.203Z,2.97
2019-05-25T07:21:15.974Z,2.93
2019-05-25T07:23:47.747Z,2.90
2019-05-25T07:26:19.546Z,2.90
2019-05-25T07:28:51.279Z,2.30
2019-05-25T07:31:23.276Z,2.67
2019-05-25T07:33:56.298Z,3.10
2019-05-25T07:36:29.283Z,2.70
2019-05-25T07:39:03.766Z,2.77
2019-05-25T07:41:35.734Z,3.60
2019-05-25T07:44:08.920Z,3.20
2019-05-25T07:46:42.178Z,3.27
2019-05-25T07:49:13.926Z,3.37
2019-05-25T07:51:45.836Z,2.93
2019-05-25T07:54:17.671Z,2.77
2019-05-25T07:56:49.546Z,2.63
2019-05-25T07:59:22.433Z,2.60
2019-05-25T08:01:54.346Z,2.83
2019-05-25T08:04:26.448Z,2.87
2019-05-25T08:06:58.262Z,3.40
2019-05-25T08:09:30.262Z,3.37
2019-05-25T08:12:03.102Z,3.10
2019-05-25T08:14:34.941Z,3.43
2019-05-25T08:17:06.704Z,3.47
2019-05-25T08:19:38.488Z,3.20
2019-05-25T08:22:10.432Z,3.63
2019-05-25T08:24:42.205Z,3.10
2019-05-25T08:27:13.958Z,3.10
2019-05-25T08:29:45.742Z,2.90
2019-05-25T08:32:17.586Z,2.90
2019-05-25T08:34:50.371Z,2.17
2019-05-25T08:37:22.248Z,2.63
2019-05-25T08:39:53.950Z,3.00
2019-05-25T08:42:25.671Z,2.87
2019-05-25T08:44:57.344Z,2.00
2019-05-25T08:47:29.138Z,1.80
2019-05-25T08:50:00.885Z,2.10
2019-05-25T08:52:32.734Z,1.67
2019-05-25T08:55:04.778Z,1.90
2019-05-25T08:57:36.533Z,2.30
2019-05-25T09:00:09.990Z,1.70
2019-05-25T09:02:42.932Z,2.27
2019-05-25T09:05:14.873Z,1.90
2019-05-25T09:07:46.621Z,2.10
2019-05-25T09:10:20.011Z,2.00
2019-05-25T09:12:51.781Z,2.13
2019-05-25T09:15:24.781Z,2.17
2019-05-25T09:17:56.718Z,2.00
2019-05-25T09:20:28.443Z,2.03
2019-05-25T09:23:00.234Z,2.03
2019-05-25T09:25:31.936Z,2.10
2019-05-25T09:28:03.696Z,1.83
2019-05-25T09:30:36.018Z,2.17
2019-05-25T09:33:07.871Z,2.47
2019-05-25T09:35:39.667Z,2.30
2019-05-25T09:38:11.475Z,2.20
2019-05-25T09:40:43.295Z,1.70
2019-05-25T09:43:15.094Z,1.90
2019-05-25T09:45:47.889Z,2.00
2019-05-25T09:48:20.950Z,2.30
2019-05-25T09:50:52.656Z,2.63
2019-05-25T09:53:24.597Z,2.37
2019-05-25T09:55:56.407Z,2.60
2019-05-25T09:58:28.169Z,3.03
2019-05-25T10:00:59.899Z,4.10
2019-05-25T10:03:33.604Z,4.10
2019-05-25T10:06:11.573Z,4.00
2019-05-25T10:08:38.976Z,4.10
2019-05-25T10:11:10.982Z,4.20
2019-05-25T10:13:43.020Z,4.70
2019-05-25T10:16:21.257Z,4.00
2019-05-25T10:18:55.817Z,3.97
2019-05-25T10:21:28.650Z,4.13
2019-05-25T10:24:00.386Z,4.50
2019-05-25T10:26:32.114Z,4.23
2019-05-25T10:29:03.931Z,4.70
2019-05-25T10:31:35.788Z,4.23
2019-05-25T10:34:09.735Z,4.42
2019-05-25T10:36:43.887Z,4.42
2019-05-25T10:39:15.606Z,4.70
2019-05-25T10:41:47.397Z,4.53
2019-05-25T10:44:20.827Z,4.70
2019-05-25T10:46:52.638Z,3.95
2019-05-25T10:49:25.619Z,4.03
2019-05-25T10:51:57.941Z,4.10
2019-05-25T10:54:32.058Z,3.90
2019-05-25T10:57:03.968Z,3.40
2019-05-25T10:59:51.627Z,2.80
2019-05-25T11:02:10.064Z,2.47
2019-05-25T11:04:43.664Z,2.77
2019-05-25T11:07:16.901Z,2.67
2019-05-25T11:09:48.633Z,2.63
2019-05-25T11:12:20.362Z,1.80
2019-05-25T11:14:52.804Z,2.27
2019-05-25T11:17:25.129Z,2.92
2019-05-25T11:19:56.924Z,3.00
2019-05-25T11:22:28.626Z,3.20
2019-05-25T11:25:01.697Z,2.87
2019-05-25T11:27:33.401Z,2.95
2019-05-25T11:30:09.613Z,2.58
2019-05-25T11:32:40.621Z,2.60
2019-05-25T11:35:13.591Z,2.60
2019-05-25T11:37:47.356Z,2.90
2019-05-25T11:40:21.491Z,2.95
2019-05-25T11:42:53.885Z,3.15
2019-05-25T11:45:26.411Z,2.75
2019-05-25T11:47:58.797Z,3.42
2019-05-25T11:50:31.063Z,3.35
2019-05-25T11:53:05.936Z,2.37
2019-05-25T11:55:37.686Z,2.02
2019-05-25T11:58:09.968Z,2.10
2019-05-25T12:00:42.509Z,2.30
2019-05-25T12:03:14.833Z,2.70
2019-05-25T12:05:47.206Z,2.65
2019-05-25T12:08:19.517Z,2.85
2019-05-25T12:10:51.881Z,2.87
2019-05-25T12:13:24.199Z,2.75
2019-05-25T12:15:57.962Z,2.95
2019-05-25T12:18:30.257Z,3.80
2019-05-25T12:21:08.338Z,2.98
2019-05-25T12:23:40.632Z,2.95
2019-05-25T12:26:12.950Z,2.67
2019-05-25T12:28:45.221Z,2.15
2019-05-25T12:31:19.149Z,2.55
2019-05-25T12:33:51.564Z,2.98
2019-05-25T12:36:25.818Z,3.08
2019-05-25T12:38:58.140Z,3.10
2019-05-25T12:41:32.081Z,3.40
2019-05-25T12:44:05.687Z,3.00
2019-05-25T12:46:39.914Z,3.40
2019-05-25T12:49:12.197Z,3.92
2019-05-25T12:51:44.585Z,3.87
2019-05-25T12:54:16.889Z,3.22
2019-05-25T12:56:49.349Z,3.40
2019-05-25T12:59:23.429Z,3.12
2019-05-25T13:01:58.224Z,3.17
2019-05-25T13:04:51.396Z,2.70
2019-05-25T13:07:25.331Z,2.98
2019-05-25T13:09:57.735Z,3.45
2019-05-25T13:12:30.149Z,2.75
2019-05-25T13:15:02.631Z,2.85
2019-05-25T13:17:34.938Z,3.08
2019-05-25T13:20:07.979Z,3.00
2019-05-25T13:22:40.292Z,2.87
2019-05-25T13:25:12.778Z,2.50
2019-05-25T13:27:45.131Z,3.10
2019-05-25T13:30:20.383Z,3.10
2019-05-25T13:32:52.739Z,3.12
2019-05-25T13:35:25.141Z,3.05
2019-05-25T13:37:57.514Z,2.87
2019-05-25T13:40:50.394Z,2.80
2019-05-25T13:43:22.672Z,3.33
2019-05-25T13:45:55.079Z,3.08
2019-05-25T13:48:27.430Z,2.85
2019-05-25T13:50:59.806Z,3.15
2019-05-25T13:53:33.091Z,3.37
2019-05-25T13:56:06.137Z,3.67
2019-05-25T13:58:39.353Z,3.27
2019-05-25T14:01:25.634Z,3.87
2019-05-25T14:03:45.619Z,2.87
2019-05-25T14:06:18.728Z,3.30
2019-05-25T14:08:50.522Z,3.00
2019-05-25T14:11:22.275Z,3.25
2019-05-25T14:13:53.992Z,2.77
2019-05-25T14:16:25.735Z,3.27
2019-05-25T14:18:57.605Z,3.20
2019-05-25T14:21:31.026Z,2.92
2019-05-25T14:24:02.793Z,2.80
2019-05-25T14:26:35.199Z,3.40
2019-05-25T14:29:06.923Z,2.83
2019-05-25T14:31:45.458Z,2.20
2019-05-25T14:34:12.294Z,2.40
2019-05-25T14:36:44.091Z,2.10
2019-05-25T14:39:15.894Z,2.30
2019-05-25T14:41:47.777Z,2.40
2019-05-25T14:44:19.455Z,2.67
2019-05-25T14:46:51.216Z,1.70
2019-05-25T14:49:23.062Z,1.80
2019-05-25T14:51:54.810Z,1.67
2019-05-25T14:54:26.829Z,1.63
2019-05-25T14:56:58.620Z,1.80
2019-05-25T14:59:30.490Z,2.03
2019-05-25T15:02:03.803Z,1.70
2019-05-25T15:04:35.657Z,1.70
2019-05-25T15:07:07.515Z,1.80
2019-05-25T15:09:40.625Z,1.70
2019-05-25T15:12:12.910Z,1.37
2019-05-25T15:14:45.101Z,1.23
2019-05-25T15:17:16.921Z,1.40
2019-05-25T15:19:48.626Z,1.30
2019-05-25T15:22:20.371Z,1.60
2019-05-25T15:24:52.139Z,1.20
2019-05-25T15:27:23.925Z,1.40
2019-05-25T15:29:56.197Z,1.30
2019-05-25T15:32:29.767Z,0.88
2019-05-25T15:35:01.565Z,0.98
2019-05-25T15:37:33.310Z,1.40
2019-05-25T15:40:05.656Z,1.30
2019-05-25T15:42:42.686Z,1.10
2019-05-25T15:45:15.410Z,1.05
2019-05-25T15:47:50.962Z,1.40
2019-05-25T15:50:27.990Z,1.50
2019-05-25T15:53:02.109Z,1.40
2019-05-25T15:55:34.373Z,1.52
2019-05-25T15:58:06.645Z,1.50
2019-05-25T16:00:50.444Z,1.32
2019-05-25T16:03:22.863Z,1.42
2019-05-25T16:05:54.675Z,1.82
2019-05-25T16:08:27.004Z,1.62
2019-05-25T16:10:59.298Z,1.52
2019-05-25T16:13:31.176Z,1.62
2019-05-25T16:16:06.879Z,1.52
2019-05-25T16:18:39.403Z,1.50
2019-05-25T16:21:13.576Z,1.85
2019-05-25T16:23:45.889Z,1.80
2019-05-25T16:26:20.455Z,1.30
2019-05-25T16:28:52.177Z,1.93
2019-05-25T16:31:23.968Z,1.60
2019-05-25T16:33:55.750Z,1.77
2019-05-25T16:36:28.066Z,1.67
2019-05-25T16:38:59.866Z,2.03
2019-05-25T16:41:31.621Z,1.70
2019-05-25T16:44:03.337Z,1.50
2019-05-25T16:46:36.383Z,1.70
2019-05-25T16:49:08.250Z,1.53
2019-05-25T16:51:40.082Z,1.63
2019-05-25T16:54:13.639Z,1.90
2019-05-25T16:56:45.355Z,1.97
2019-05-25T16:59:17.082Z,1.80
2019-05-25T17:01:49.542Z,1.40
2019-05-25T17:04:21.311Z,1.83
2019-05-25T17:06:53.136Z,1.40
2019-05-25T17:09:24.954Z,1.50
2019-05-25T17:11:56.729Z,1.47
2019-05-25T17:14:28.448Z,2.07
2019-05-25T17:17:01.291Z,2.17
2019-05-25T17:19:33.063Z,1.37
2019-05-25T17:22:06.124Z,1.60
2019-05-25T17:24:37.932Z,1.60
2019-05-25T17:27:09.774Z,1.67
2019-05-25T17:29:41.567Z,1.10
2019-05-25T17:32:13.515Z,1.47
2019-05-25T17:34:45.230Z,1.40
2019-05-25T17:37:18.485Z,1.50
2019-05-25T17:39:50.300Z,1.70
2019-05-25T17:42:22.193Z,1.40
2019-05-25T17:44:53.957Z,1.53
2019-05-25T17:47:26.737Z,1.30
2019-05-25T17:49:59.798Z,1.53
2019-05-25T17:52:33.703Z,1.53
2019-05-25T17:55:06.136Z,1.33
2019-05-25T17:57:39.065Z,1.57
2019-05-25T18:00:11.425Z,1.30
2019-05-25T18:02:43.198Z,1.23
2019-05-25T18:05:16.998Z,1.43
2019-05-25T18:07:50.182Z,1.30
2019-05-25T18:10:21.938Z,1.40
2019-05-25T18:12:54.999Z,1.50
2019-05-25T18:15:27.925Z,1.27
2019-05-25T18:17:59.817Z,1.20
2019-05-25T18:20:33.015Z,1.47
2019-05-25T18:23:06.033Z,1.13
2019-05-25T18:25:37.877Z,1.30
2019-05-25T18:28:10.038Z,1.23
2019-05-25T18:30:41.828Z,1.20
2019-05-25T18:33:13.802Z,1.20
2019-05-25T18:35:45.829Z,1.20
2019-05-25T18:38:17.760Z,1.20
2019-05-25T18:40:50.781Z,1.20
2019-05-25T18:43:22.645Z,1.30
2019-05-25T18:45:54.663Z,1.20
2019-05-25T18:48:28.085Z,1.10
2019-05-25T18:51:00.092Z,1.30
2019-05-25T18:53:31.993Z,1.13
2019-05-25T18:56:04.208Z,1.20
2019-05-25T18:58:37.582Z,1.10
2019-05-25T19:01:09.323Z,1.30
2019-05-25T19:03:41.318Z,1.20
2019-05-25T19:06:13.112Z,1.47
2019-05-25T19:08:46.371Z,1.30
2019-05-25T19:11:18.428Z,1.30
2019-05-25T19:13:50.480Z,1.40
2019-05-25T19:16:22.683Z,1.43
2019-05-25T19:18:54.652Z,1.10
2019-05-25T19:21:28.057Z,1.33
2019-05-25T19:24:04.884Z,1.03
2019-05-25T19:26:40.721Z,1.37
2019-05-25T19:29:17.931Z,1.27
2019-05-25T19:31:55.965Z,1.37
2019-05-25T19:34:28.987Z,1.13
2019-05-25T19:37:04.829Z,1.43
2019-05-25T19:39:36.601Z,1.40
2019-05-25T19:42:08.344Z,1.27
2019-05-25T19:44:40.195Z,1.60
2019-05-25T19:47:24.449Z,1.47
2019-05-25T19:49:56.560Z,1.30
2019-05-25T19:52:28.418Z,1.47
2019-05-25T19:55:00.206Z,1.47
2019-05-25T19:57:32.005Z,1.47
2019-05-25T20:00:03.945Z,1.40
2019-05-25T20:02:35.662Z,1.30
2019-05-25T20:05:16.261Z,1.43
2019-05-25T20:07:42.786Z,1.67
2019-05-25T20:10:15.085Z,1.30
2019-05-25T20:12:46.850Z,2.00
2019-05-25T20:15:19.310Z,1.40
2019-05-25T20:17:51.141Z,1.50
2019-05-25T20:20:23.100Z,1.70
2019-05-25T20:22:54.863Z,1.60
2019-05-25T20:25:27.907Z,1.30
2019-05-25T20:28:02.468Z,1.47
2019-05-25T20:30:37.055Z,1.50
2019-05-25T20:33:09.038Z,1.47
2019-05-25T20:35:41.001Z,1.70
2019-05-25T20:38:12.803Z,1.90
2019-05-25T20:40:47.082Z,1.70
2019-05-25T20:43:23.671Z,1.43
2019-05-25T20:45:56.626Z,2.13
2019-05-25T20:48:29.800Z,1.83
2019-05-25T20:51:07.788Z,1.50
2019-05-25T20:53:39.653Z,2.03
2019-05-25T20:56:11.426Z,1.87
2019-05-25T20:58:43.122Z,2.10
2019-05-25T21:01:14.869Z,1.70
2019-05-25T21:03:50.953Z,1.80
2019-05-25T21:06:26.437Z,2.20
2019-05-25T21:08:58.228Z,2.20
2019-05-25T21:11:41.714Z,2.23
2019-05-25T21:14:14.677Z,2.03
2019-05-25T21:16:46.728Z,2.10
2019-05-25T21:19:34.432Z,2.57
2019-05-25T21:22:06.392Z,2.73
2019-05-25T21:24:43.572Z,3.73
2019-05-25T21:27:21.512Z,2.90
2019-05-25T21:29:53.439Z,3.07
2019-05-25T21:32:28.010Z,3.20
2019-05-25T21:35:03.842Z,3.17
2019-05-25T21:37:35.593Z,2.50
2019-05-25T21:40:12.981Z,2.83
2019-05-25T21:42:53.621Z,2.50
2019-05-25T21:45:27.599Z,2.57
2019-05-25T21:48:02.103Z,2.20
2019-05-25T21:50:33.812Z,2.60
2019-05-25T21:53:11.314Z,2.70
2019-05-25T21:55:46.196Z,2.93
2019-05-25T21:58:21.905Z,2.83
2019-05-25T22:00:53.737Z,2.90
2019-05-25T22:03:27.471Z,2.33
2019-05-25T22:06:23.817Z,3.13
2019-05-25T22:08:45.270Z,3.37
2019-05-25T22:11:17.044Z,2.60
2019-05-25T22:13:48.916Z,3.00
2019-05-25T22:16:24.172Z,3.43
2019-05-25T22:18:58.371Z,3.00
2019-05-25T22:21:31.349Z,2.90
2019-05-25T22:24:03.272Z,3.17
2019-05-25T22:26:37.975Z,3.43
2019-05-25T22:29:09.756Z,3.20
2019-05-25T22:31:41.447Z,3.57
2019-05-25T22:34:13.172Z,3.17
2019-05-25T22:36:44.881Z,3.40
2019-05-25T22:39:16.607Z,3.33
2019-05-25T22:41:48.337Z,3.27
2019-05-25T22:44:20.219Z,3.60
2019-05-25T22:46:52.020Z,3.77
2019-05-25T22:49:35.498Z,3.03
2019-05-25T22:52:07.267Z,3.17
2019-05-25T22:54:39.004Z,3.50
2019-05-25T22:57:10.762Z,2.70
2019-05-25T22:59:42.446Z,3.70
2019-05-25T23:02:14.204Z,3.40
2019-05-25T23:04:45.942Z,2.87
2019-05-25T23:07:17.821Z,3.10
2019-05-25T23:09:51.022Z,3.17
2019-05-25T23:12:24.304Z,3.30
2019-05-25T23:14:57.528Z,3.30
2019-05-25T23:17:30.719Z,3.10
2019-05-25T23:20:03.582Z,3.17
2019-05-25T23:22:35.345Z,3.07
2019-05-25T23:25:07.913Z,3.03
2019-05-25T23:27:39.660Z,3.00
2019-05-25T23:30:11.877Z,3.20
2019-05-25T23:32:43.499Z,3.07
2019-05-25T23:35:15.752Z,3.27
2019-05-25T23:37:47.456Z,3.33
2019-05-25T23:40:19.454Z,3.37
2019-05-25T23:42:52.500Z,2.87
2019-05-25T23:45:24.542Z,2.90
2019-05-25T23:47:56.316Z,2.87
2019-05-25T23:50:28.015Z,2.87
2019-05-25T23:53:01.003Z,2.90
2019-05-25T23:55:34.398Z,2.67
2019-05-25T23:58:06.197Z,3.73
